Twist, Arkansas
Current Conditions -  °F | °C
As of 1:53 PM on Friday 24 Oct 2014 (Local Time) from KAWM Reporting Station
Clear Clear  
Wind Chill: 73°   Ceiling: Unl
Heat Index: 73°   Visibility: 10mi
Dew Point: 53°   Wind: 3mph
Humidity: 49%   Direction: NA
Pressure: 30.1"   Gusts: NA
Location:  35.38°N, 90.51°W
Report Text: KAWM 241853Z AUTO VRB03KT 10SM CLR 23/12 A3010 RMK AO2 SLP190 T02280117
Loading
Personal Weather Stations






























Interactive Weather Map
Tropical Storm Tracking
New forecast layout! Learn more

10-Day Weather Forecast

Advertisements
Track Severe Weather on mobile